KSPW/SPW METAR and TAF weather

Enter ICAO airport designator
Station Type Date Time Source
KSPW METAR 2020/07/02 16:53 UTC NOAA

KSPW 021653Z AUTO 13010KT 10SM CLR 31/21 A3009 RMK AO2 SLP177 T03060206 TSNO


Station Type Date Time Source
KSPW Decoded METAR 2020/07/02 16:53 UTC NOAA

SPENCER MUNICIPAL AIRPORT, IA, United States (KSPW) 43-10N 95-13W 403M
Jul 02, 2020 - 12:53 PM EDT / 2020.07.02 1653 UTC
Wind: from the SE (130 degrees) at 12 MPH (10 KT):0
Visibility: 10 mile(s):0
Sky conditions: clear
Temperature: 87.1 F (30.6 C)
Dew Point: 69.1 F (20.6 C)
Relative Humidity: 55%
Pressure (altimeter): 30.09 in. Hg (1018 hPa)
ob: KSPW 021653Z AUTO 13010KT 10SM CLR 31/21 A3009 RMK AO2 SLP177 T03060206 TSNO
cycle: 17

Station Type Date Time Source
KSPW TAF UTC NOAA

Error!

Example: see airport list